LiveATC.Net - Listen to live air traffic control over the Internet!


ICAO: OBBI  IATA: BAH   Airport: Bahrain International Airport
City: Muharraq
Country: Bahrain   Continent: Asia
OBBI METAR Weather: OBBI 192000Z 32015KT CAVOK 34/22 Q0999 NOSIG
OBBI Flight Activity (FlightAware)

OBBI Gnd/Twr/App
Feed Status: UP   Listeners: 0
Listen in your browser - HTML5 player (in browser, HTML5)
Click here to listen with your own player (launches your MP3 player)
OBBI Gnd/Twr/App Audio Archives
FacilityFrequency
Bahrain Arrival127.850
Bahrain Departure119.100
Bahrain Ground121.850
Bahrain Tower118.500

NOTICE

Unauthorized use prohibited. See LiveATC.net Terms of Service


Find LiveATC Audio Streams


Airport/ARTCC Code

Frequency Search
(e.g., 124.400, 128.75)
Site-wide search
 


Browse LiveATC Feeds
Top 50 LiveATC Feeds
LiveATC Feed Map
Bad Weather Areas

LiveATC FAQ
Offer LiveATC feed
Contact LiveATC.net
Press Inquiries

LiveATC on iPhone
LiveATC on Android

Windows Phone
Windows 8/10

LiveATC Mobile
(Mobile browser)

ATC Audio Archives
Interesting Recordings

LiveATC Forums


Home Page
About LiveATC.net
Make a Donation
Terms of Use
Privacy Policy

Canadian Air Freqs

AIRMETs/SIGMETs

FAA Airport Status
Nat'l Airspace Status
Arrival Demand Charts


Server Software By:
Icecast.org
Liquidsoap